Time;durP1;ratioP1;P1;durP2;ratioP2;P2;SDS_P1;SDS_P2;PMS_P1;PMS_P2;Temp;Humidity;BMP_temperature;BMP_pressure;BME280_temperature;BME280_humidity;BME280_pressure;Samples;Min_cycle;Max_cycle;Signal;HPM_P1;HPM_P2
2022/01/27 00:02:36;;;;;;;18.83;12.10;;;;;;;3.37;61.46;100313.31;5070542;28;20187;-56
2022/01/27 00:05:14;;;;;;;16.27;11.80;;;;;;;3.32;61.28;100314.72;5070868;28;20192;-55
2022/01/27 00:07:42;;;;;;;21.60;13.33;;;;;;;3.29;61.93;100317.09;5071028;28;20191;-55
2022/01/27 00:10:18;;;;;;;18.77;12.43;;;;;;;3.23;61.54;100311.66;5070824;28;20195;-55
2022/01/27 00:12:45;;;;;;;16.40;12.23;;;;;;;3.27;62.03;100320.34;5070524;28;20650;-56
2022/01/27 00:15:14;;;;;;;18.30;12.60;;;;;;;3.27;62.63;100322.88;5071054;28;20280;-57
2022/01/27 00:17:45;;;;;;;19.47;12.40;;;;;;;3.27;62.55;100322.88;5070496;28;20759;-56
2022/01/27 00:20:13;;;;;;;16.47;12.50;;;;;;;3.26;62.21;100338.88;5070900;28;20191;-58
2022/01/27 00:22:40;;;;;;;19.08;13.48;;;;;;;3.31;62.86;100338.38;5070385;28;20438;-57
2022/01/27 00:25:10;;;;;;;17.17;12.63;;;;;;;3.32;62.69;100329.97;5070692;28;20341;-59
2022/01/27 00:27:37;;;;;;;19.90;12.33;;;;;;;3.38;62.38;100329.41;5070632;28;20191;-60
2022/01/27 00:30:06;;;;;;;18.73;12.17;;;;;;;3.39;62.55;100331.19;5070402;28;20194;-58
2022/01/27 00:32:33;;;;;;;16.53;12.00;;;;;;;3.40;62.79;100330.41;5070644;28;20666;-59
2022/01/27 00:35:01;;;;;;;15.37;11.73;;;;;;;3.43;62.53;100335.66;5070432;28;20192;-58
2022/01/27 00:37:28;;;;;;;18.27;12.73;;;;;;;3.44;62.39;100329.78;5070404;28;20345;-58
2022/01/27 00:39:56;;;;;;;20.97;13.03;;;;;;;3.43;62.37;100313.66;5070275;28;20278;-58
2022/01/27 00:42:26;;;;;;;18.40;12.80;;;;;;;3.46;62.39;100308.75;5070412;28;20253;-60
2022/01/27 00:44:53;;;;;;;17.37;12.83;;;;;;;3.46;62.34;100310.44;5070782;28;20199;-59
2022/01/27 00:47:20;;;;;;;17.93;12.93;;;;;;;3.47;62.61;100309.63;5070779;28;20301;-59
2022/01/27 00:49:47;;;;;;;19.80;13.43;;;;;;;3.44;62.93;100306.91;5070855;28;20194;-59
2022/01/27 00:52:20;;;;;;;18.97;13.30;;;;;;;3.41;62.71;100297.47;5070424;28;20917;-59
2022/01/27 00:54:49;;;;;;;17.30;12.50;;;;;;;3.51;63.01;100299.75;5070253;28;20192;-59
2022/01/27 00:57:29;;;;;;;20.83;12.73;;;;;;;3.57;62.44;100296.69;5070430;28;20252;-59
2022/01/27 01:00:00;;;;;;;17.80;12.17;;;;;;;3.56;62.53;100307.63;5070733;28;20594;-58
2022/01/27 01:02:37;;;;;;;17.03;12.83;;;;;;;3.62;62.29;100299.47;5069988;28;20196;-58
2022/01/27 01:05:18;;;;;;;19.23;13.27;;;;;;;3.57;62.21;100287.38;5070051;28;20191;-58
2022/01/27 01:07:49;;;;;;;18.13;12.87;;;;;;;3.64;62.68;100297.88;5070398;28;20632;-58
2022/01/27 01:11:02;;;;;;;20.07;13.13;;;;;;;3.62;62.02;100297.81;5068463;28;20241;-55
2022/01/27 01:15:55;;;;;;;17.50;13.40;;;;;;;3.78;61.82;100284.28;5067761;28;20190;-59
2022/01/27 01:18:36;;;;;;;17.47;12.90;;;;;;;3.78;62.28;100291.91;5067562;28;20302;-58
2022/01/27 01:21:25;;;;;;;16.27;12.37;;;;;;;3.80;62.25;100286.13;5069127;28;20276;-57
2022/01/27 01:29:52;;;;;;;22.58;16.25;;;;;;;3.79;61.81;100280.97;5071780;28;20993;-55
2022/01/27 01:32:33;;;;;;;18.37;13.30;;;;;;;3.88;62.00;100277.25;5072018;28;20248;-55
2022/01/27 01:35:00;;;;;;;18.13;13.53;;;;;;;3.86;61.45;100283.03;5073687;28;20192;-55
2022/01/27 01:37:27;;;;;;;16.20;12.47;;;;;;;3.85;61.33;100282.16;5073636;28;20192;-55
2022/01/27 01:39:54;;;;;;;19.07;12.80;;;;;;;3.80;61.31;100278.50;5073641;28;20196;-56
2022/01/27 01:42:21;;;;;;;16.17;11.37;;;;;;;3.82;60.80;100273.50;5073741;28;20192;-55
2022/01/27 01:44:49;;;;;;;17.13;11.57;;;;;;;3.81;60.85;100272.63;5073505;28;20677;-56
2022/01/27 01:47:18;;;;;;;15.97;11.47;;;;;;;3.80;61.54;100268.34;5073568;28;20547;-55
2022/01/27 01:49:46;;;;;;;16.00;11.47;;;;;;;3.85;61.18;100273.66;5073399;28;20278;-55
2022/01/27 01:52:13;;;;;;;19.57;13.00;;;;;;;3.84;61.27;100264.31;5073392;28;20694;-56
2022/01/27 01:54:40;;;;;;;14.40;11.73;;;;;;;3.83;61.06;100265.97;5073321;28;20195;-55
2022/01/27 01:57:07;;;;;;;18.27;12.97;;;;;;;3.82;61.55;100268.44;5073469;28;20574;-56
2022/01/27 01:59:37;;;;;;;16.97;11.80;;;;;;;3.85;61.60;100264.38;5073374;28;20601;-56
2022/01/27 02:02:04;;;;;;;17.80;11.83;;;;;;;3.82;61.79;100258.28;5073192;28;20279;-56
2022/01/27 02:04:31;;;;;;;17.00;12.03;;;;;;;3.82;61.42;100254.03;5073402;28;20195;-56
2022/01/27 02:07:03;;;;;;;17.83;11.93;;;;;;;3.86;61.88;100258.50;5073385;28;20199;-57
2022/01/27 02:09:47;;;;;;;17.47;11.53;;;;;;;3.86;61.65;100261.06;5073183;28;20256;-56
2022/01/27 02:18:03;;;;;;;18.03;11.27;;;;;;;3.84;61.03;100256.69;5072948;28;20190;-57
2022/01/27 02:20:33;;;;;;;15.23;10.90;;;;;;;3.82;61.47;100253.19;5073189;28;20188;-55
2022/01/27 02:23:00;;;;;;;15.20;11.10;;;;;;;3.84;60.27;100264.31;5072820;28;20227;-55
2022/01/27 02:25:27;;;;;;;15.13;11.53;;;;;;;3.86;61.02;100258.50;5073022;28;20199;-56
2022/01/27 02:27:55;;;;;;;16.37;11.40;;;;;;;3.90;60.94;100257.88;5072775;28;20195;-55
2022/01/27 02:30:23;;;;;;;20.13;12.57;;;;;;;3.89;60.70;100253.59;5072635;28;20202;-55
2022/01/27 02:32:52;;;;;;;15.00;11.70;;;;;;;3.90;61.14;100250.25;5072980;28;20187;-56
2022/01/27 02:35:21;;;;;;;14.83;11.33;;;;;;;3.92;61.26;100248.69;5072654;28;20192;-55
2022/01/27 02:37:49;;;;;;;18.10;12.37;;;;;;;3.86;61.88;100268.66;5071140;28;20195;-55
2022/01/27 02:40:24;;;;;;;18.20;12.77;;;;;;;3.81;61.08;100246.34;5072572;28;20202;-55
2022/01/27 02:42:51;;;;;;;16.60;11.90;;;;;;;3.95;61.46;100253.94;5072839;28;21027;-55
2022/01/27 02:45:22;;;;;;;18.13;12.83;;;;;;;3.97;61.28;100254.00;5073070;28;20187;-55
2022/01/27 02:47:49;;;;;;;16.20;11.87;;;;;;;4.01;61.49;100256.78;5068022;28;20195;-55
2022/01/27 02:50:16;;;;;;;17.07;11.77;;;;;;;4.06;61.62;100254.50;5071255;28;20194;-55
2022/01/27 02:52:43;;;;;;;14.43;11.07;;;;;;;4.08;60.94;100255.44;5071895;28;20648;-55
2022/01/27 02:55:12;;;;;;;16.97;11.30;;;;;;;4.08;61.41;100252.91;5071855;28;20191;-56
2022/01/27 02:57:40;;;;;;;18.67;12.50;;;;;;;4.09;61.04;100252.13;5072106;28;20179;-56
2022/01/27 03:00:07;;;;;;;13.67;10.80;;;;;;;4.13;60.35;100249.81;5070595;28;20653;-56
2022/01/27 03:02:36;;;;;;;16.37;11.43;;;;;;;4.12;60.40;100245.53;5071714;28;20187;-56
2022/01/27 03:05:03;;;;;;;16.93;11.07;;;;;;;4.08;60.35;100230.91;5071764;28;20320;-56
2022/01/27 03:07:30;;;;;;;15.47;11.13;;;;;;;4.09;60.69;100242.81;5071503;28;20199;-56
2022/01/27 03:09:57;;;;;;;19.83;11.43;;;;;;;4.09;60.60;100244.50;5068399;28;20191;-56
2022/01/27 03:12:27;;;;;;;15.43;11.80;;;;;;;4.12;60.72;100242.13;5071773;28;20200;-56
2022/01/27 03:14:54;;;;;;;14.83;10.80;;;;;;;4.18;60.13;100235.69;5069011;28;20188;-56
2022/01/27 03:17:21;;;;;;;13.83;10.37;;;;;;;4.18;60.48;100232.25;5071838;28;20283;-56
2022/01/27 03:19:48;;;;;;;16.37;10.63;;;;;;;4.21;60.04;100247.69;5071641;28;20760;-56
2022/01/27 03:22:15;;;;;;;13.43;10.33;;;;;;;4.13;60.38;100232.03;5071656;28;20223;-56
2022/01/27 03:24:42;;;;;;;14.37;10.80;;;;;;;4.24;60.05;100237.69;5071668;28;20195;-58
2022/01/27 03:27:16;;;;;;;13.53;9.87;;;;;;;4.27;60.28;100237.84;5071946;28;20300;-56
2022/01/27 03:29:44;;;;;;;14.83;9.83;;;;;;;4.24;59.98;100242.75;5071691;28;20194;-56
2022/01/27 03:32:11;;;;;;;14.90;10.83;;;;;;;4.16;60.35;100244.03;5071687;28;20195;-56
2022/01/27 03:34:38;;;;;;;13.40;9.97;;;;;;;4.14;60.34;100238.00;5066250;28;20184;-56
2022/01/27 03:37:05;;;;;;;14.23;9.83;;;;;;;4.11;61.18;100243.78;5070211;28;20307;-56
2022/01/27 03:39:35;;;;;;;16.10;9.67;;;;;;;4.08;60.71;100235.13;5071447;28;20216;-56
2022/01/27 03:42:03;;;;;;;14.47;10.30;;;;;;;4.05;60.48;100235.81;5071411;28;20204;-56
2022/01/27 03:44:29;;;;;;;14.03;9.97;;;;;;;4.09;60.29;100237.72;5071373;28;20642;-56
2022/01/27 03:46:58;;;;;;;13.83;9.90;;;;;;;3.99;60.17;100237.16;5071407;28;20279;-56
2022/01/27 03:49:25;;;;;;;12.17;9.57;;;;;;;3.99;59.92;100222.78;5070857;28;20211;-56
2022/01/27 03:51:58;;;;;;;13.07;9.70;;;;;;;4.22;59.70;100251.09;5069327;28;20733;-56
2022/01/27 03:54:25;;;;;;;12.27;9.17;;;;;;;4.29;59.40;100254.03;5070832;28;20196;-56
2022/01/27 03:56:52;;;;;;;12.73;8.90;;;;;;;4.18;59.29;100219.53;5072061;28;20540;-59
2022/01/27 03:59:19;;;;;;;14.83;9.13;;;;;;;4.31;58.82;100244.84;5072939;28;20302;-56
2022/01/27 04:01:45;;;;;;;15.07;9.17;;;;;;;4.31;59.17;100260.13;5073139;28;20653;-56
2022/01/27 04:04:15;;;;;;;12.63;9.77;;;;;;;4.34;59.23;100260.25;5070935;28;20563;-57
2022/01/27 04:06:42;;;;;;;11.43;9.00;;;;;;;4.27;58.99;100254.75;5067701;28;20241;-56
2022/01/27 04:09:11;;;;;;;12.27;9.00;;;;;;;4.28;58.96;100269.25;5070507;28;20187;-56
2022/01/27 04:11:41;;;;;;;11.90;9.17;;;;;;;4.31;58.40;100266.88;5069953;28;20183;-56
2022/01/27 04:14:08;;;;;;;12.00;9.83;;;;;;;4.33;58.87;100262.72;5070610;28;20196;-56
2022/01/27 04:16:35;;;;;;;14.87;10.13;;;;;;;4.37;58.71;100272.28;5072869;28;20187;-56
2022/01/27 04:19:03;;;;;;;13.63;10.37;;;;;;;4.32;59.17;100263.50;5076600;28;20294;-56
2022/01/27 04:21:31;;;;;;;19.63;12.00;;;;;;;4.31;59.78;100277.91;5070045;28;20302;-56
2022/01/27 04:23:58;;;;;;;16.77;11.20;;;;;;;4.26;59.92;100279.31;5068067;28;20246;-56
2022/01/27 04:26:32;;;;;;;13.37;9.90;;;;;;;4.18;58.45;100278.91;5070351;28;20196;-56
2022/01/27 04:28:59;;;;;;;17.27;10.33;;;;;;;4.26;59.49;100288.63;5050433;28;20192;-55
2022/01/27 04:31:28;;;;;;;12.23;9.23;;;;;;;4.21;58.12;100284.94;5050682;28;20203;-56
2022/01/27 04:33:55;;;;;;;14.37;9.53;;;;;;;4.13;57.72;100285.44;5050351;28;20196;-55
2022/01/27 04:36:29;;;;;;;11.97;9.40;;;;;;;4.07;58.15;100280.00;5050587;28;20193;-56
2022/01/27 04:39:00;;;;;;;15.17;10.80;;;;;;;4.09;58.34;100286.03;5050071;28;20250;-55
2022/01/27 04:41:34;;;;;;;11.17;9.07;;;;;;;4.13;58.59;100282.88;5050035;28;20275;-56
2022/01/27 04:44:11;;;;;;;12.67;9.67;;;;;;;4.17;58.53;100286.47;5049403;28;20192;-56
2022/01/27 04:46:44;;;;;;;13.97;10.33;;;;;;;4.22;58.99;100290.13;5049059;28;20192;-56
2022/01/27 04:49:12;;;;;;;15.20;10.50;;;;;;;4.25;58.97;100297.06;5049556;28;20203;-56
2022/01/27 04:51:39;;;;;;;15.47;9.70;;;;;;;4.23;58.82;100306.28;5049321;28;20196;-56
2022/01/27 04:54:13;;;;;;;16.80;11.13;;;;;;;4.21;59.36;100296.00;5049051;28;20199;-56
2022/01/27 04:56:41;;;;;;;15.93;10.67;;;;;;;4.18;58.98;100306.88;5049322;28;20369;-56
2022/01/27 04:59:14;;;;;;;15.73;11.03;;;;;;;4.22;59.31;100307.06;5049448;28;20215;-56
2022/01/27 05:01:45;;;;;;;17.23;11.23;;;;;;;3.95;59.86;100276.81;5049659;28;20282;-56
2022/01/27 05:04:15;;;;;;;15.13;10.57;;;;;;;4.15;59.81;100319.44;5050077;28;20242;-56
2022/01/27 05:06:42;;;;;;;16.10;11.40;;;;;;;4.12;60.52;100321.81;5061227;28;20246;-56
2022/01/27 05:09:10;;;;;;;17.53;10.50;;;;;;;4.11;60.58;100320.06;5050581;28;20304;-56
2022/01/27 05:11:44;;;;;;;15.93;10.93;;;;;;;4.09;60.67;100321.63;5049835;28;20279;-56
2022/01/27 05:14:15;;;;;;;16.00;10.67;;;;;;;4.14;60.14;100327.00;5049933;28;20227;-56
2022/01/27 05:16:43;;;;;;;17.27;11.30;;;;;;;4.18;59.94;100332.31;5050053;28;20188;-56
2022/01/27 05:19:10;;;;;;;14.90;10.47;;;;;;;4.17;59.99;100335.63;5049753;28;20226;-56
2022/01/27 05:21:37;;;;;;;13.07;9.97;;;;;;;4.21;60.02;100340.91;5049655;28;20221;-57
2022/01/27 05:24:05;;;;;;;14.77;10.43;;;;;;;4.17;59.98;100333.09;5050217;28;20198;-56
2022/01/27 05:26:34;;;;;;;13.27;10.30;;;;;;;4.23;59.79;100334.25;5049983;28;20188;-56
2022/01/27 05:29:01;;;;;;;17.90;10.63;;;;;;;4.22;59.27;100330.81;5049758;28;20671;-56
2022/01/27 05:31:28;;;;;;;13.60;10.53;;;;;;;4.18;59.32;100319.59;5049663;28;20309;-56
2022/01/27 05:33:55;;;;;;;13.40;10.13;;;;;;;4.21;59.27;100338.34;5050028;28;20192;-56
2022/01/27 05:36:22;;;;;;;15.10;9.97;;;;;;;4.29;59.23;100337.09;5049954;28;20305;-56
2022/01/27 05:38:49;;;;;;;15.00;10.73;;;;;;;4.34;59.42;100330.63;5049564;28;20195;-56
2022/01/27 05:41:16;;;;;;;17.80;11.27;;;;;;;4.37;59.21;100336.72;5049785;28;20279;-56
2022/01/27 05:43:45;;;;;;;14.20;10.27;;;;;;;4.40;58.65;100334.34;5049738;28;20199;-56
2022/01/27 05:46:12;;;;;;;14.53;10.23;;;;;;;4.46;58.57;100341.44;5049705;28;20682;-56
2022/01/27 05:48:39;;;;;;;14.43;10.53;;;;;;;4.49;58.74;100341.59;5049376;28;20688;-56
2022/01/27 05:51:06;;;;;;;11.50;9.13;;;;;;;4.48;58.60;100339.84;5049183;28;20196;-56
2022/01/27 05:53:35;;;;;;;15.00;9.67;;;;;;;4.48;58.28;100345.81;5049629;28;20227;-56
2022/01/27 05:56:03;;;;;;;13.93;11.00;;;;;;;4.57;58.76;100346.31;5065040;28;21188;-55
2022/01/27 05:58:30;;;;;;;15.20;11.20;;;;;;;4.58;57.69;100353.16;5068845;28;20334;-55
2022/01/27 06:00:58;;;;;;;14.27;10.20;;;;;;;4.54;57.95;100351.25;5069675;28;21034;-55
2022/01/27 06:03:25;;;;;;;12.50;10.10;;;;;;;4.48;58.62;100350.03;5069573;28;20195;-56
2022/01/27 06:05:52;;;;;;;12.43;10.13;;;;;;;4.52;58.25;100351.94;5069052;28;20678;-59
2022/01/27 06:08:19;;;;;;;11.23;8.50;;;;;;;4.50;58.68;100354.44;5068917;28;20570;-58
2022/01/27 06:10:45;;;;;;;12.17;9.17;;;;;;;4.52;58.38;100359.59;5069423;28;20195;-58
2022/01/27 06:13:12;;;;;;;14.17;9.13;;;;;;;4.53;57.84;100356.25;5072769;28;20655;-59
2022/01/27 06:15:39;;;;;;;11.90;8.97;;;;;;;4.56;57.85;100362.38;5073219;28;20200;-59
2022/01/27 06:18:07;;;;;;;18.67;8.53;;;;;;;4.64;56.91;100352.63;5072694;28;20198;-59
2022/01/27 06:20:36;;;;;;;10.97;8.30;;;;;;;4.66;57.91;100356.13;5072788;28;20215;-59
2022/01/27 06:23:03;;;;;;;12.30;9.70;;;;;;;4.69;57.24;100364.78;5072510;28;20780;-59
2022/01/27 06:25:30;;;;;;;12.10;9.60;;;;;;;4.69;56.88;100359.69;5072815;28;20640;-58
2022/01/27 06:27:58;;;;;;;15.00;8.90;;;;;;;4.73;56.03;100364.16;5072692;28;20195;-60
2022/01/27 06:30:25;;;;;;;12.10;8.80;;;;;;;4.69;55.83;100367.34;5072817;28;20191;-59
2022/01/27 06:32:52;;;;;;;13.97;9.50;;;;;;;4.71;55.33;100354.69;5072632;28;20753;-58
2022/01/27 06:35:20;;;;;;;12.33;9.23;;;;;;;4.77;55.95;100365.19;5072531;28;20288;-58
2022/01/27 06:37:47;;;;;;;12.97;8.77;;;;;;;4.80;55.84;100360.28;5072387;28;20670;-60
2022/01/27 06:40:15;;;;;;;12.03;8.90;;;;;;;4.84;55.85;100366.38;5072242;28;20211;-59
2022/01/27 06:42:43;;;;;;;13.03;9.13;;;;;;;4.84;55.17;100366.38;5072571;28;20231;-59
2022/01/27 06:45:11;;;;;;;13.90;9.40;;;;;;;4.87;54.59;100379.25;5072296;28;20192;-59
2022/01/27 06:47:37;;;;;;;14.50;10.00;;;;;;;4.86;55.09;100370.78;5071405;28;20192;-59
2022/01/27 06:50:05;;;;;;;11.63;9.53;;;;;;;4.91;54.96;100376.97;5072368;28;20187;-60
2022/01/27 06:52:34;;;;;;;15.20;9.30;;;;;;;4.94;54.95;100374.59;5071634;28;20192;-59
2022/01/27 06:55:03;;;;;;;12.73;9.87;;;;;;;4.95;55.21;100386.50;5071592;28;20223;-59
2022/01/27 06:57:30;;;;;;;15.17;8.47;;;;;;;5.03;54.58;100386.91;5072034;28;20188;-59
2022/01/27 06:59:57;;;;;;;12.43;8.03;;;;;;;4.99;54.85;100383.34;5071688;28;20345;-58
2022/01/27 07:02:24;;;;;;;10.23;8.93;;;;;;;5.08;55.52;100378.72;5072045;28;20574;-59
2022/01/27 07:04:51;;;;;;;12.90;9.97;;;;;;;5.13;54.72;100386.63;5071824;28;20199;-59
2022/01/27 07:07:18;;;;;;;11.13;9.27;;;;;;;5.16;54.88;100384.22;5067486;28;20606;-58
2022/01/27 07:09:46;;;;;;;11.60;8.30;;;;;;;5.19;54.80;100382.69;5069057;28;20184;-58
2022/01/27 07:12:13;;;;;;;12.00;8.83;;;;;;;5.25;54.17;100384.69;5068510;28;20187;-59
2022/01/27 07:14:40;;;;;;;13.27;9.27;;;;;;;5.28;54.94;100389.94;5071099;28;20664;-59
2022/01/27 07:17:07;;;;;;;10.87;8.23;;;;;;;5.38;54.22;100393.03;5070833;28;20230;-59
2022/01/27 07:19:34;;;;;;;13.30;8.70;;;;;;;5.43;54.35;100394.94;5071022;28;20292;-58
2022/01/27 07:22:01;;;;;;;9.67;7.67;;;;;;;5.41;53.88;100401.63;5070969;28;20227;-59
2022/01/27 07:24:28;;;;;;;11.20;8.03;;;;;;;5.50;54.31;100397.00;5068525;28;20211;-59
2022/01/27 07:26:56;;;;;;;9.83;7.87;;;;;;;5.50;54.37;100404.63;5071624;28;20215;-59
2022/01/27 07:29:23;;;;;;;13.40;9.00;;;;;;;5.54;54.79;100402.34;5071318;28;20290;-59
2022/01/27 07:31:50;;;;;;;10.60;8.73;;;;;;;5.66;53.77;100407.19;5070961;28;20385;-59
2022/01/27 07:34:17;;;;;;;11.37;8.00;;;;;;;5.74;53.90;100401.63;5071268;28;20197;-60
2022/01/27 07:36:44;;;;;;;11.00;7.60;;;;;;;5.76;54.03;100405.16;5070890;28;20210;-60
2022/01/27 07:39:14;;;;;;;11.07;8.23;;;;;;;5.87;53.98;100406.59;5071313;28;20620;-60
2022/01/27 07:41:41;;;;;;;10.07;7.97;;;;;;;5.93;53.74;100406.03;5069823;28;20227;-59
2022/01/27 07:44:10;;;;;;;13.27;8.00;;;;;;;6.04;53.23;100397.22;5070594;28;20205;-59
2022/01/27 07:46:37;;;;;;;9.57;7.30;;;;;;;6.09;52.58;100400.00;5070748;28;20196;-59
2022/01/27 07:49:04;;;;;;;12.27;8.37;;;;;;;6.18;51.96;100403.84;5070793;28;20690;-59
2022/01/27 07:51:31;;;;;;;13.47;8.10;;;;;;;6.20;52.25;100409.03;5070889;28;20198;-59
2022/01/27 07:53:58;;;;;;;17.10;8.77;;;;;;;6.20;52.05;100403.94;5069240;28;20271;-58
2022/01/27 07:56:26;;;;;;;10.47;8.40;;;;;;;6.23;52.06;100409.19;5065474;28;20647;-60
2022/01/27 07:58:54;;;;;;;16.00;8.93;;;;;;;6.18;52.39;100411.50;5068673;28;20180;-59
2022/01/27 08:01:22;;;;;;;11.13;8.20;;;;;;;6.23;52.70;100416.84;5066614;28;20343;-59
2022/01/27 08:03:49;;;;;;;11.70;8.90;;;;;;;6.22;51.63;100415.97;5060744;28;20254;-59
2022/01/27 08:06:16;;;;;;;19.70;9.47;;;;;;;6.20;52.29;100422.69;5063476;28;20210;-59
2022/01/27 08:08:43;;;;;;;12.27;9.30;;;;;;;6.16;51.97;100413.09;5070519;28;20664;-59
2022/01/27 08:11:10;;;;;;;9.60;7.63;;;;;;;5.96;51.57;100393.41;5070582;28;20189;-58
2022/01/27 08:13:37;;;;;;;16.83;10.13;;;;;;;6.08;52.59;100436.50;5070618;28;20189;-59
2022/01/27 08:16:05;;;;;;;14.57;9.63;;;;;;;6.07;52.38;100432.22;5070337;28;20200;-58
2022/01/27 08:18:33;;;;;;;12.80;8.93;;;;;;;6.06;52.12;100427.91;5070711;28;20196;-59
2022/01/27 08:21:00;;;;;;;10.87;8.10;;;;;;;6.00;51.42;100441.22;5070276;28;20219;-59
2022/01/27 08:23:27;;;;;;;14.20;9.07;;;;;;;5.92;52.36;100439.97;5069813;28;20231;-60
2022/01/27 08:26:03;;;;;;;12.63;9.43;;;;;;;5.91;53.51;100440.75;5070428;28;20274;-59
2022/01/27 08:28:34;;;;;;;13.73;8.77;;;;;;;5.93;52.43;100442.59;5070113;28;20282;-60
2022/01/27 08:31:03;;;;;;;17.00;9.03;;;;;;;6.00;53.25;100440.34;5070510;28;20239;-60
2022/01/27 08:33:30;;;;;;;10.33;7.87;;;;;;;6.08;52.75;100434.81;5070193;28;20283;-59
2022/01/27 08:36:00;;;;;;;16.10;8.73;;;;;;;6.18;52.76;100437.00;5065197;28;20193;-59
2022/01/27 08:38:27;;;;;;;12.63;8.67;;;;;;;5.89;52.44;100381.16;5067983;28;20199;-59
2022/01/27 08:40:54;;;;;;;10.03;7.70;;;;;;;6.30;53.24;100442.72;5065196;28;20630;-59
2022/01/27 08:43:21;;;;;;;12.03;7.50;;;;;;;6.13;53.00;100435.91;5068505;28;20306;-59
2022/01/27 08:45:50;;;;;;;13.27;7.93;;;;;;;5.90;53.13;100382.94;5069876;28;20192;-60
2022/01/27 08:48:20;;;;;;;12.30;7.80;;;;;;;6.32;53.13;100438.56;5067810;28;20323;-59
2022/01/27 08:50:53;;;;;;;13.93;8.13;;;;;;;6.35;53.30;100438.69;5064653;28;20264;-60
2022/01/27 08:53:22;;;;;;;7.90;7.07;;;;;;;6.48;52.62;100447.84;5069410;28;20188;-59
2022/01/27 08:55:49;;;;;;;10.67;8.17;;;;;;;6.51;52.72;100450.50;5067566;28;20195;-59
2022/01/27 08:58:16;;;;;;;9.47;8.17;;;;;;;6.58;53.56;100449.13;5068849;28;20205;-60
2022/01/27 09:00:43;;;;;;;8.27;7.23;;;;;;;6.71;52.70;100446.34;5067828;28;20229;-60
2022/01/27 09:03:10;;;;;;;9.87;7.67;;;;;;;6.78;52.21;100444.16;5064612;28;20252;-59
2022/01/27 09:05:37;;;;;;;11.90;7.90;;;;;;;6.92;52.60;100447.34;5069188;28;20189;-59
2022/01/27 09:08:04;;;;;;;11.43;8.43;;;;;;;6.90;53.06;100444.72;5066125;28;20504;-59
2022/01/27 09:10:33;;;;;;;8.47;7.60;;;;;;;6.72;53.76;100448.09;5065176;28;20264;-60
2022/01/27 09:13:01;;;;;;;7.87;6.37;;;;;;;6.66;54.55;100442.69;5067569;28;20192;-59
2022/01/27 09:15:28;;;;;;;7.93;7.13;;;;;;;6.76;53.73;100447.41;5069749;28;20290;-59
2022/01/27 09:17:58;;;;;;;9.00;6.57;;;;;;;6.88;53.11;100445.44;5069836;28;20206;-59
2022/01/27 09:20:25;;;;;;;9.43;7.03;;;;;;;6.80;53.02;100445.09;5069689;28;20220;-60
2022/01/27 09:22:53;;;;;;;9.87;7.53;;;;;;;6.62;53.30;100394.88;5069227;28;20232;-59
2022/01/27 09:25:24;;;;;;;11.27;8.53;;;;;;;6.92;52.57;100439.69;5069575;28;20290;-60
2022/01/27 09:27:53;;;;;;;8.93;7.80;;;;;;;7.13;52.85;100438.97;5069619;28;20190;-60
2022/01/27 09:30:21;;;;;;;10.87;7.87;;;;;;;7.11;52.75;100437.16;5069831;28;20696;-60
2022/01/27 09:32:48;;;;;;;10.10;7.03;;;;;;;7.14;52.43;100435.59;5069506;28;20197;-60
2022/01/27 09:35:15;;;;;;;9.50;7.33;;;;;;;7.22;52.60;100428.28;5069294;28;20202;-60
2022/01/27 09:37:42;;;;;;;9.60;7.53;;;;;;;7.32;51.55;100430.44;5069700;28;20190;-59
2022/01/27 09:40:12;;;;;;;9.70;7.23;;;;;;;7.39;51.40;100426.47;5069260;28;20197;-60
2022/01/27 09:42:48;;;;;;;8.90;7.53;;;;;;;7.44;51.58;100433.53;5055803;28;20198;-60
2022/01/27 09:45:17;;;;;;;9.87;8.03;;;;;;;7.44;50.89;100437.78;5048890;28;20190;-59
2022/01/27 09:47:53;;;;;;;14.47;9.47;;;;;;;7.58;50.82;100422.19;5052717;28;20300;-59
2022/01/27 09:50:27;;;;;;;8.97;6.73;;;;;;;7.40;50.29;100390.75;5053013;28;20194;-60
2022/01/27 09:52:54;;;;;;;10.63;6.93;;;;;;;7.70;50.70;100420.16;5052966;28;20196;-60
2022/01/27 09:55:21;;;;;;;12.97;9.33;;;;;;;7.73;50.49;100402.41;5065296;28;20204;-60
2022/01/27 09:57:48;;;;;;;15.73;8.80;;;;;;;7.84;49.67;100400.28;5072645;28;20289;-60
2022/01/27 10:00:16;;;;;;;9.73;7.27;;;;;;;7.81;49.59;100407.81;5072621;28;20317;-59
2022/01/27 10:03:02;;;;;;;11.70;8.30;;;;;;;7.63;49.74;100394.28;5073085;28;20289;-59
2022/01/27 10:05:29;;;;;;;9.00;7.87;;;;;;;7.74;50.09;100398.16;5072969;28;20559;-59
2022/01/27 10:08:02;;;;;;;10.27;7.13;;;;;;;7.76;50.07;100387.97;5072609;28;20191;-60
2022/01/27 10:10:29;;;;;;;8.00;6.77;;;;;;;7.78;49.57;100378.69;5073120;28;20262;-60
2022/01/27 10:12:57;;;;;;;12.00;8.47;;;;;;;7.73;49.75;100384.50;5072965;28;20188;-60
2022/01/27 10:15:26;;;;;;;11.40;8.73;;;;;;;7.89;49.63;100387.66;5072470;28;20683;-60
2022/01/27 10:18:08;;;;;;;8.67;7.77;;;;;;;7.89;49.50;100380.00;5072000;28;20194;-60
2022/01/27 10:20:36;;;;;;;9.73;8.20;;;;;;;8.00;49.31;100379.63;5072532;28;20712;-60
2022/01/27 10:23:15;;;;;;;10.23;7.47;;;;;;;8.01;49.13;100375.38;5072503;28;20221;-60
2022/01/27 10:25:49;;;;;;;10.10;8.43;;;;;;;8.07;49.21;100367.97;5069877;28;20534;-60
2022/01/27 10:28:29;;;;;;;15.73;10.80;;;;;;;8.15;48.91;100371.69;5052432;28;20232;-60
2022/01/27 10:31:09;;;;;;;13.67;9.67;;;;;;;8.14;49.19;100364.81;5052322;28;20203;-60
2022/01/27 10:33:50;;;;;;;11.97;8.57;;;;;;;8.05;49.35;100359.31;5065324;28;20277;-61
2022/01/27 10:36:20;;;;;;;11.77;9.07;;;;;;;7.99;49.72;100361.66;5069671;28;20220;-60
2022/01/27 10:38:49;;;;;;;11.23;9.63;;;;;;;7.99;49.63;100348.88;5070228;28;20199;-60
2022/01/27 10:41:16;;;;;;;11.40;7.77;;;;;;;7.94;49.90;100352.94;5071625;28;20713;-61
2022/01/27 10:43:44;;;;;;;9.20;8.07;;;;;;;7.95;49.83;100352.97;5071634;28;20681;-60
2022/01/27 10:46:21;;;;;;;9.30;7.80;;;;;;;7.93;49.87;100349.50;5068223;28;20202;-60
2022/01/27 10:48:53;;;;;;;11.20;9.20;;;;;;;7.81;50.19;100340.44;5070635;28;20513;-60
2022/01/27 10:51:25;;;;;;;11.17;8.33;;;;;;;7.81;50.31;100332.75;5070180;28;20277;-60
2022/01/27 10:53:58;;;;;;;12.17;8.60;;;;;;;7.73;50.31;100337.56;5065565;28;20194;-59
2022/01/27 10:56:28;;;;;;;10.00;7.90;;;;;;;7.82;50.17;100327.72;5068574;28;20268;-60
2022/01/27 10:58:57;;;;;;;13.83;8.63;;;;;;;7.79;50.58;100335.28;5068516;28;20282;-59
2022/01/27 11:01:32;;;;;;;11.43;9.20;;;;;;;7.87;50.31;100338.13;5051219;28;20220;-59
2022/01/27 11:04:01;;;;;;;10.10;8.03;;;;;;;7.86;50.03;100331.25;5051450;28;20206;-59
2022/01/27 11:06:31;;;;;;;10.40;8.75;;;;;;;7.78;50.34;100324.97;5050803;28;20530;-59
2022/01/27 11:09:01;;;;;;;10.57;7.87;;;;;;;7.92;50.00;100324.72;5051160;28;20195;-59
2022/01/27 11:11:28;;;;;;;9.87;7.93;;;;;;;7.80;50.43;100325.91;5051079;28;20197;-60
2022/01/27 11:13:58;;;;;;;10.23;8.17;;;;;;;7.79;49.99;100325.03;5051631;28;20207;-60
2022/01/27 11:16:30;;;;;;;10.70;8.63;;;;;;;7.63;50.33;100300.53;5051065;28;20196;-59
2022/01/27 11:19:12;;;;;;;12.80;8.80;;;;;;;7.86;50.03;100315.91;5051552;28;20294;-59
2022/01/27 11:21:43;;;;;;;9.60;8.43;;;;;;;7.90;50.20;100322.91;5051129;28;20242;-60
2022/01/27 11:24:23;;;;;;;12.53;9.23;;;;;;;8.03;50.06;100318.34;5051412;28;20227;-60
2022/01/27 11:26:53;;;;;;;10.47;8.53;;;;;;;8.15;49.02;100310.25;5051166;28;20562;-60
2022/01/27 11:29:22;;;;;;;12.03;9.17;;;;;;;8.21;49.05;100307.94;5051335;28;20195;-60
2022/01/27 11:32:13;;;;;;;8.77;7.87;;;;;;;8.15;48.96;100302.59;5051174;28;20615;-60
2022/01/27 11:34:49;;;;;;;18.03;9.27;;;;;;;8.19;48.56;100312.13;5050998;28;20192;-59
2022/01/27 11:37:18;;;;;;;16.07;10.07;;;;;;;8.22;49.07;100312.22;5051357;28;20208;-59
2022/01/27 11:39:51;;;;;;;10.97;9.07;;;;;;;8.27;48.54;100303.94;5050725;28;20191;-60
2022/01/27 11:42:43;;;;;;;14.33;10.97;;;;;;;8.25;48.49;100303.00;5068347;28;20215;-60
2022/01/27 11:45:28;;;;;;;11.30;9.17;;;;;;;8.29;48.30;100312.56;5069599;28;20285;-59
2022/01/27 11:47:57;;;;;;;15.48;12.20;;;;;;;8.23;48.36;100311.44;5069438;28;20445;-59